TAF LDPL 280525Z 2806/2906 10007KT 9999 FEW050
                 TX31/2813Z TN21/2903Z
           TEMPO 2810/2817 24007KT
    PROB30 TEMPO 2816/2822 -TSRA FEW050CB=
TAF LDPL 272325Z 2800/2900 06005KT CAVOK
                 TX32/2813Z TN22/2803Z
           TEMPO 2811/2819 27007KT
    PROB30 TEMPO 2815/2818 -TSRA FEW050CB=
TAF LDPL 271725Z 2718/2818 10006KT CAVOK
                 TX31/2814Z TN22/2803Z=
TAF LDPL 271125Z 2712/2812 10006KT 9999 SCT045
                 TX29/2714Z TN22/2803Z=
TAF LDPL 270525Z 2706/2806 10006KT 9999 SCT045
                 TX29/2714Z TN22/2803Z
    PROB30 TEMPO 2706/2713 TSRA SCT040CB
    PROB30 TEMPO 2710/2713 27008KT=
TAF LDPL 262325Z 2700/2800 12008KT 9999 SCT045
                 TX30/2713Z TN21/2700Z
    PROB30 TEMPO 2700/2709 VRB15KT TSRA SCT040 FEW045CB
           BECMG 2716/2718 27008KT
    PROB30 TEMPO 2716/2720 TSRA SCT040 FEW045CB
           BECMG 2718/2720 06007KT=